Time;durP1;ratioP1;P1;durP2;ratioP2;P2;SDS_P1;SDS_P2;PMS_P1;PMS_P2;Temp;Humidity;BMP_temperature;BMP_pressure;BME280_temperature;BME280_humidity;BME280_pressure;Samples;Min_cycle;Max_cycle;Signal;HPM_P1;HPM_P2
2021/01/26 00:02:11;;;;;;;59.90;30.17;;;;;;;-2.71;97.47;100889.56;4880698;29;20526;-79
2021/01/26 00:04:37;;;;;;;67.53;31.63;;;;;;;-2.83;97.56;100887.44;4857957;29;20041;-79
2021/01/26 00:07:03;;;;;;;58.80;31.05;;;;;;;-2.95;97.40;100873.34;4859675;29;20049;-78
2021/01/26 00:09:29;;;;;;;63.97;31.65;;;;;;;-3.00;97.41;100882.94;4863910;29;20128;-80
2021/01/26 00:11:54;;;;;;;59.33;29.65;;;;;;;-3.10;96.92;100886.75;4861955;29;20445;-78
2021/01/26 00:14:20;;;;;;;52.92;29.60;;;;;;;-3.14;97.31;100891.97;4871317;29;20045;-78
2021/01/26 00:16:45;;;;;;;49.10;26.45;;;;;;;-3.19;96.92;100885.34;4860163;29;20509;-80
2021/01/26 00:19:11;;;;;;;56.22;29.02;;;;;;;-3.25;97.01;100888.13;4871704;29;20048;-78
2021/01/26 00:21:36;;;;;;;49.30;27.77;;;;;;;-3.26;97.20;100886.44;4877046;29;20045;-79
2021/01/26 00:24:02;;;;;;;52.63;26.95;;;;;;;-3.24;97.35;100887.22;4878456;29;20037;-79
2021/01/26 00:26:28;;;;;;;62.65;30.38;;;;;;;-3.29;97.39;100887.41;4847154;29;20102;-77
2021/01/26 00:28:54;;;;;;;76.07;36.33;;;;;;;-3.32;97.65;100890.91;4861581;29;20411;-78
2021/01/26 00:31:19;;;;;;;53.60;27.80;;;;;;;-3.32;97.59;100898.59;4862971;29;20083;-79
2021/01/26 00:33:45;;;;;;;62.35;32.03;;;;;;;-3.39;97.13;100886.91;4870580;29;20053;-78
2021/01/26 00:36:10;;;;;;;63.10;30.33;;;;;;;-3.39;96.81;100891.16;4878676;29;20160;-78
2021/01/26 00:38:36;;;;;;;59.92;30.25;;;;;;;-3.45;97.29;100886.25;4878114;29;20059;-79
2021/01/26 00:41:02;;;;;;;61.83;31.80;;;;;;;-3.46;96.74;100897.44;4870871;29;20176;-77
2021/01/26 00:43:27;;;;;;;60.10;29.80;;;;;;;-3.47;96.92;100900.88;4874558;29;20044;-79
2021/01/26 00:45:53;;;;;;;57.28;29.42;;;;;;;-3.48;97.29;100900.03;4881704;29;20068;-79
2021/01/26 00:48:18;;;;;;;59.67;29.55;;;;;;;-3.48;97.19;100888.91;4864610;29;20507;-80
2021/01/26 00:50:44;;;;;;;59.75;31.23;;;;;;;-3.46;97.33;100892.28;4875842;29;20120;-79
2021/01/26 00:53:10;;;;;;;60.20;31.40;;;;;;;-3.46;97.23;100900.00;4865013;29;20044;-80
2021/01/26 00:55:42;;;;;;;55.90;28.73;;;;;;;-3.48;97.36;100894.03;4852539;29;20033;-79
2021/01/26 00:58:09;;;;;;;59.35;29.08;;;;;;;-3.53;97.58;100896.78;4858746;29;20048;-78
2021/01/26 01:00:38;;;;;;;48.53;26.83;;;;;;;-3.53;97.43;100907.88;4865859;29;20125;-79
2021/01/26 01:03:16;;;;;;;53.90;28.15;;;;;;;-3.60;97.11;100908.13;4872487;29;20054;-78
2021/01/26 01:05:41;;;;;;;58.15;29.23;;;;;;;-3.67;96.66;100901.53;4873005;29;20042;-79
2021/01/26 01:08:07;;;;;;;56.17;29.98;;;;;;;-3.68;96.66;100918.66;4866095;29;20045;-78
2021/01/26 01:10:36;;;;;;;58.70;31.30;;;;;;;-3.69;96.93;100911.88;4877555;29;20033;-77
2021/01/26 01:13:03;;;;;;;53.15;29.10;;;;;;;-3.69;96.80;100914.44;4874509;29;20041;-79
2021/01/26 01:15:29;;;;;;;62.97;30.70;;;;;;;-3.78;96.76;100912.16;4877265;29;20036;-77
2021/01/26 01:17:54;;;;;;;55.20;28.27;;;;;;;-3.78;97.28;100909.59;4874543;29;20041;-78
2021/01/26 01:20:22;;;;;;;57.25;28.38;;;;;;;-3.81;96.30;100902.84;4873472;29;20056;-79
2021/01/26 01:22:48;;;;;;;61.45;29.35;;;;;;;-3.78;96.98;100909.59;4870808;29;20050;-78
2021/01/26 01:25:14;;;;;;;59.25;30.95;;;;;;;-3.80;96.58;100907.09;4874858;29;20056;-78
2021/01/26 01:27:40;;;;;;;81.25;37.25;;;;;;;-3.83;97.59;100916.59;4876308;29;20045;-77
2021/01/26 01:30:08;;;;;;;68.22;34.70;;;;;;;-3.85;97.52;100913.25;4877572;29;20558;-80
2021/01/26 01:32:33;;;;;;;57.72;29.52;;;;;;;-3.84;97.04;100917.47;4849506;29;20056;-78
2021/01/26 01:34:59;;;;;;;65.38;31.58;;;;;;;-3.87;97.04;100913.28;4892240;29;20033;-78
2021/01/26 01:37:24;;;;;;;69.82;32.60;;;;;;;-3.78;97.47;100914.72;4862421;29;20048;-78
2021/01/26 01:39:50;;;;;;;62.50;30.75;;;;;;;-3.68;96.80;100918.66;4875734;29;20037;-79
2021/01/26 01:42:15;;;;;;;62.95;30.25;;;;;;;-3.67;97.02;100917.78;4865861;29;20077;-79
2021/01/26 01:44:41;;;;;;;64.75;32.80;;;;;;;-3.71;97.06;100913.66;4878012;29;20037;-78
2021/01/26 01:47:14;;;;;;;67.18;33.00;;;;;;;-3.71;96.87;100913.66;4877108;29;20041;-78
2021/01/26 01:49:45;;;;;;;77.28;36.03;;;;;;;-3.78;96.89;100912.16;4873343;29;20037;-78
2021/01/26 01:52:17;;;;;;;73.82;33.47;;;;;;;-3.85;96.95;100911.50;4881317;29;20049;-79
2021/01/26 01:54:48;;;;;;;60.13;31.75;;;;;;;-3.86;97.08;100917.53;4880739;29;20037;-78
2021/01/26 01:57:27;;;;;;;59.90;28.70;;;;;;;-3.88;97.07;100916.75;4879183;29;20037;-78
2021/01/26 01:59:58;;;;;;;64.45;32.22;;;;;;;-3.93;97.37;100916.88;4874261;29;20045;-79
2021/01/26 02:02:25;;;;;;;60.13;30.92;;;;;;;-3.94;97.44;100925.50;4850561;29;20123;-79
2021/01/26 02:04:51;;;;;;;57.00;31.17;;;;;;;-3.91;97.38;100919.41;4876900;29;20045;-79
2021/01/26 02:07:17;;;;;;;51.88;27.48;;;;;;;-3.89;96.92;100919.38;4873940;29;20037;-78
2021/01/26 02:09:43;;;;;;;63.05;31.30;;;;;;;-3.93;97.15;100911.78;4873434;29;20070;-79
2021/01/26 02:12:12;;;;;;;65.60;31.10;;;;;;;-3.91;96.96;100919.41;4880284;29;20041;-79
2021/01/26 02:14:44;;;;;;;67.32;32.53;;;;;;;-3.93;97.04;100926.31;4877290;29;20040;-77
2021/01/26 02:17:26;;;;;;;60.97;32.58;;;;;;;-3.91;97.79;100925.38;4867876;29;20437;-79
2021/01/26 02:20:11;;;;;;;57.25;30.42;;;;;;;-3.90;97.28;100923.63;4879596;29;20057;-77
2021/01/26 02:22:39;;;;;;;70.43;33.03;;;;;;;-3.87;97.76;100928.66;4877357;29;20034;-79
2021/01/26 02:25:30;;;;;;;66.70;32.63;;;;;;;-3.84;98.07;100931.16;4893954;29;20046;-79
2021/01/26 02:28:24;;;;;;;76.60;34.20;;;;;;;-3.84;97.46;100930.28;4869092;29;20495;-79
2021/01/26 02:31:09;;;;;;;65.13;31.23;;;;;;;-3.83;97.53;100939.66;4874934;29;20500;-77
2021/01/26 02:34:08;;;;;;;76.60;33.58;;;;;;;-3.80;97.43;100942.97;4881812;29;20048;-79
2021/01/26 02:36:51;;;;;;;63.42;31.40;;;;;;;-3.83;97.09;100942.22;4879270;29;20551;-79
2021/01/26 02:39:33;;;;;;;62.50;32.17;;;;;;;-3.94;97.39;100940.88;4881552;29;20048;-77
2021/01/26 02:42:26;;;;;;;62.75;32.38;;;;;;;-3.79;97.93;100943.78;4881042;29;20052;-79
2021/01/26 02:45:23;;;;;;;74.72;33.63;;;;;;;-3.68;98.25;100949.41;4865248;29;20045;-77
2021/01/26 02:48:10;;;;;;;74.80;34.75;;;;;;;-3.64;97.62;100943.28;4880670;29;20049;-77
2021/01/26 02:50:51;;;;;;;73.95;33.70;;;;;;;-3.66;98.06;100944.25;4871590;29;20044;-78
2021/01/26 02:53:35;;;;;;;75.88;36.42;;;;;;;-3.70;97.79;100947.81;4879214;29;20515;-76
2021/01/26 02:56:15;;;;;;;64.85;32.03;;;;;;;-3.72;97.94;100945.28;4879007;29;20493;-77
2021/01/26 02:58:56;;;;;;;66.15;34.28;;;;;;;-3.75;97.46;100956.47;4873590;29;20042;-77
2021/01/26 03:01:27;;;;;;;72.68;34.63;;;;;;;-3.73;97.28;100958.97;4880984;29;20044;-78
2021/01/26 03:03:59;;;;;;;67.63;34.25;;;;;;;-3.72;97.92;100953.81;4874488;29;20063;-80
2021/01/26 03:06:30;;;;;;;62.13;33.28;;;;;;;-3.62;98.12;100964.59;4880676;29;20698;-79
2021/01/26 03:09:09;;;;;;;67.78;33.38;;;;;;;-3.56;97.95;100961.84;4882871;29;20068;-79
2021/01/26 03:11:50;;;;;;;67.25;33.47;;;;;;;-3.47;98.20;100962.41;4864906;29;20044;-78
2021/01/26 03:14:29;;;;;;;60.78;30.98;;;;;;;-3.40;98.05;100966.47;4870193;29;20041;-79
2021/01/26 03:17:05;;;;;;;55.80;28.30;;;;;;;-3.33;98.18;100970.50;4855910;29;20062;-77
2021/01/26 03:19:34;;;;;;;69.35;30.85;;;;;;;-3.27;98.74;100967.72;4849162;29;20037;-79
2021/01/26 03:22:02;;;;;;;68.78;32.92;;;;;;;-3.22;98.19;100972.66;4869066;29;20040;-79
2021/01/26 03:24:39;;;;;;;67.18;33.45;;;;;;;-3.15;98.09;100971.56;4866235;29;20109;-79
2021/01/26 03:27:17;;;;;;;65.75;32.35;;;;;;;-3.07;98.16;100972.16;4870051;29;20037;-79
2021/01/26 03:29:46;;;;;;;66.28;32.00;;;;;;;-3.01;98.31;100965.97;4880547;29;20172;-78
2021/01/26 03:32:19;;;;;;;61.95;31.73;;;;;;;-2.96;97.84;100974.34;4880116;29;20092;-78
2021/01/26 03:34:44;;;;;;;71.78;34.08;;;;;;;-2.95;98.30;100971.72;4880787;29;20075;-76
2021/01/26 03:37:12;;;;;;;77.65;37.78;;;;;;;-3.00;98.03;100983.03;4880841;29;20247;-78
2021/01/26 03:39:37;;;;;;;72.82;37.28;;;;;;;-3.05;98.53;100982.34;4897614;29;20506;-78
2021/01/26 03:42:04;;;;;;;82.35;39.67;;;;;;;-3.01;98.56;100987.34;4863709;29;20037;-79
2021/01/26 03:44:30;;;;;;;77.45;37.03;;;;;;;-3.03;98.38;100986.56;4845601;29;20061;-79
2021/01/26 03:47:24;;;;;;;78.53;38.67;;;;;;;-3.00;98.68;100985.59;4878066;29;20071;-79
2021/01/26 03:50:10;;;;;;;75.38;37.15;;;;;;;-2.98;98.92;100989.78;4871270;29;20042;-76
2021/01/26 03:52:54;;;;;;;84.20;37.63;;;;;;;-2.96;98.72;100995.72;4879007;29;20136;-78
2021/01/26 03:55:43;;;;;;;73.32;36.22;;;;;;;-2.95;98.58;100994.81;4868375;29;20044;-78
2021/01/26 03:58:34;;;;;;;65.88;33.42;;;;;;;-2.94;98.81;100999.06;4867613;29;20155;-79
2021/01/26 04:01:22;;;;;;;69.45;34.35;;;;;;;-2.88;98.99;100987.75;4893931;29;20513;-78
2021/01/26 04:04:21;;;;;;;79.90;39.03;;;;;;;-2.88;98.57;100998.03;4872101;29;20053;-78
2021/01/26 04:06:51;;;;;;;69.60;33.58;;;;;;;-2.88;98.62;100998.03;4875779;29;20068;-77
2021/01/26 04:09:22;;;;;;;59.83;31.85;;;;;;;-2.88;98.65;100997.16;4846482;29;20048;-77
2021/01/26 04:11:51;;;;;;;78.78;37.53;;;;;;;-2.88;98.65;101003.16;4881645;29;20051;-78
2021/01/26 04:14:24;;;;;;;75.30;37.92;;;;;;;-2.86;98.72;101003.94;4882764;29;20056;-79
2021/01/26 04:16:55;;;;;;;82.50;38.88;;;;;;;-2.86;98.47;101010.78;4874869;29;20029;-78
2021/01/26 04:19:32;;;;;;;70.88;35.53;;;;;;;-2.81;98.69;101014.03;4852744;29;20096;-78
2021/01/26 04:22:00;;;;;;;86.57;39.95;;;;;;;-2.78;98.63;101004.50;4877378;29;20045;-79
2021/01/26 04:24:32;;;;;;;78.10;40.65;;;;;;;-2.78;98.45;101006.22;4863753;29;20048;-78
2021/01/26 04:27:00;;;;;;;76.22;38.30;;;;;;;-2.81;98.52;101003.75;4877965;29;20824;-77
2021/01/26 04:29:26;;;;;;;64.65;32.90;;;;;;;-2.80;98.69;101016.53;4878334;29;20041;-79
2021/01/26 04:31:53;;;;;;;77.65;36.25;;;;;;;-2.81;98.48;101017.44;4865177;29;20043;-78
2021/01/26 04:34:19;;;;;;;71.30;35.13;;;;;;;-2.78;98.92;101021.63;4878452;29;20037;-78
2021/01/26 04:36:44;;;;;;;74.15;36.97;;;;;;;-2.78;98.52;101014.75;4878817;29;20044;-79
2021/01/26 04:39:10;;;;;;;51.80;27.65;;;;;;;-2.71;98.66;101017.09;4851052;29;20052;-77
2021/01/26 04:41:50;;;;;;;64.30;32.13;;;;;;;-2.64;98.64;101013.44;4878288;29;20045;-78
2021/01/26 04:44:43;;;;;;;77.50;34.65;;;;;;;-2.59;98.71;101011.53;4872932;29;20078;-79
2021/01/26 04:47:28;;;;;;;75.18;37.67;;;;;;;-2.56;98.66;101009.69;4873579;29;20076;-78
2021/01/26 04:50:25;;;;;;;85.13;42.13;;;;;;;-2.61;98.43;101019.28;4878088;29;20049;-79
2021/01/26 04:53:10;;;;;;;78.25;38.80;;;;;;;-2.68;98.54;101030.69;4875237;29;20041;-78
2021/01/26 04:55:52;;;;;;;69.68;36.25;;;;;;;-2.70;98.42;101039.34;4872477;29;20049;-78
2021/01/26 04:58:39;;;;;;;74.30;35.50;;;;;;;-2.72;98.48;101041.13;4869966;29;20682;-79
2021/01/26 05:01:07;;;;;;;84.07;39.25;;;;;;;-2.72;99.07;101048.81;4878122;29;20115;-77
2021/01/26 05:04:12;;;;;;;74.47;37.20;;;;;;;-2.72;98.79;101049.66;4878990;29;20073;-78
2021/01/26 05:06:45;;;;;;;80.03;39.63;;;;;;;-2.71;99.07;101053.91;4869148;29;20120;-78
2021/01/26 05:09:18;;;;;;;65.00;32.67;;;;;;;-2.69;98.70;101054.69;4880754;29;20033;-79
2021/01/26 05:11:45;;;;;;;78.28;37.05;;;;;;;-2.67;98.84;101044.38;4877706;29;20248;-78
2021/01/26 05:14:17;;;;;;;68.13;35.22;;;;;;;-2.62;99.04;101050.16;4862981;29;20040;-78
2021/01/26 05:16:46;;;;;;;70.47;36.67;;;;;;;-2.53;98.56;101044.69;4859138;29;20045;-79
2021/01/26 05:19:20;;;;;;;70.47;35.55;;;;;;;-2.53;98.80;101051.56;4868408;29;20048;-78
2021/01/26 05:21:50;;;;;;;71.40;35.47;;;;;;;-2.53;98.21;101060.13;4879592;29;20037;-78
2021/01/26 05:24:31;;;;;;;67.85;35.35;;;;;;;-2.51;99.08;101058.31;4880815;29;20093;-78
2021/01/26 05:26:59;;;;;;;70.85;35.42;;;;;;;-2.49;98.40;101053.97;4880903;29;20122;-77
2021/01/26 05:29:25;;;;;;;60.05;30.85;;;;;;;-2.49;98.77;101055.72;4860485;29;20041;-77
2021/01/26 05:31:58;;;;;;;65.63;33.45;;;;;;;-2.46;98.51;101065.88;4890075;29;20128;-79
2021/01/26 05:34:26;;;;;;;61.25;34.35;;;;;;;-2.49;98.28;101066.81;4882675;29;20515;-78
2021/01/26 05:36:51;;;;;;;67.40;34.58;;;;;;;-2.58;98.21;101065.44;4879041;29;20085;-78
2021/01/26 05:39:27;;;;;;;69.95;36.53;;;;;;;-2.64;98.28;101072.50;4849553;29;20040;-79
2021/01/26 05:41:52;;;;;;;73.75;35.47;;;;;;;-2.70;98.35;101068.41;4866312;29;20071;-78
2021/01/26 05:44:20;;;;;;;67.93;34.05;;;;;;;-2.76;98.35;101077.16;4876131;29;20057;-80
2021/01/26 05:46:48;;;;;;;71.40;36.53;;;;;;;-2.84;98.61;101076.59;4880795;29;20037;-77
2021/01/26 05:49:40;;;;;;;65.30;34.22;;;;;;;-2.85;98.38;101092.06;4870796;29;20041;-78
2021/01/26 05:52:08;;;;;;;75.85;36.45;;;;;;;-2.93;98.47;101084.63;4843940;29;20097;-79
2021/01/26 05:54:37;;;;;;;76.55;38.05;;;;;;;-2.97;98.52;101088.19;4877679;29;20041;-78
2021/01/26 05:57:04;;;;;;;75.40;39.13;;;;;;;-3.00;98.61;101096.81;4870674;29;20461;-77
2021/01/26 05:59:35;;;;;;;66.63;33.55;;;;;;;-3.02;98.36;101108.84;4875620;29;20242;-77
2021/01/26 06:02:17;;;;;;;69.63;34.72;;;;;;;-3.04;98.25;101117.50;4872254;29;20298;-78
2021/01/26 06:04:43;;;;;;;69.22;35.67;;;;;;;-3.12;98.46;101107.50;4873504;29;20102;-78
2021/01/26 06:07:21;;;;;;;65.88;33.95;;;;;;;-3.14;98.48;101114.41;4879973;29;20045;-77
2021/01/26 06:09:49;;;;;;;71.65;36.17;;;;;;;-3.15;98.51;101120.41;4848982;29;20045;-80
2021/01/26 06:12:23;;;;;;;61.85;31.50;;;;;;;-3.17;98.57;101122.19;4884561;29;20037;-78
2021/01/26 06:14:55;;;;;;;64.03;33.20;;;;;;;-3.22;98.67;101132.59;4876153;29;20037;-78
2021/01/26 06:17:35;;;;;;;67.18;34.22;;;;;;;-3.29;98.80;101128.56;4875484;29;20487;-78
2021/01/26 06:20:20;;;;;;;62.72;33.25;;;;;;;-3.33;98.88;101132.09;4863550;29;20407;-79
2021/01/26 06:22:48;;;;;;;74.35;35.67;;;;;;;-3.38;98.08;101131.41;4880074;29;20079;-78
2021/01/26 06:25:20;;;;;;;60.78;32.33;;;;;;;-3.38;98.22;101139.94;4880683;29;20337;-78
2021/01/26 06:28:06;;;;;;;62.90;32.80;;;;;;;-3.47;98.77;101137.66;4880358;29;20488;-80
2021/01/26 06:30:31;;;;;;;66.20;31.83;;;;;;;-3.50;97.80;101137.75;4880531;29;20041;-78
2021/01/26 06:33:21;;;;;;;57.78;29.05;;;;;;;-3.53;98.33;101136.09;4858106;29;20124;-78
2021/01/26 06:35:59;;;;;;;57.85;31.98;;;;;;;-3.60;97.44;101128.66;4875872;29;20033;-78
2021/01/26 06:38:36;;;;;;;58.80;30.02;;;;;;;-3.65;97.38;101127.97;4874645;29;20508;-78
2021/01/26 06:41:29;;;;;;;66.35;33.97;;;;;;;-3.62;97.65;101131.25;4875685;29;20048;-79
2021/01/26 06:44:23;;;;;;;56.35;29.75;;;;;;;-3.59;97.84;101131.19;4857686;29;20108;-78
2021/01/26 06:47:00;;;;;;;62.63;32.35;;;;;;;-3.51;98.24;101133.50;4872165;29;20515;-80
2021/01/26 06:49:46;;;;;;;63.95;33.53;;;;;;;-3.56;98.04;101138.78;4882023;29;20127;-79
2021/01/26 06:52:40;;;;;;;70.43;34.22;;;;;;;-3.40;97.41;101146.00;4865935;29;20049;-79
2021/01/26 06:55:23;;;;;;;68.75;34.47;;;;;;;-3.40;97.08;101146.84;4865502;29;20120;-78
2021/01/26 06:58:10;;;;;;;69.73;35.53;;;;;;;-3.49;97.46;101166.81;4860988;29;20048;-76
2021/01/26 07:00:43;;;;;;;70.60;35.20;;;;;;;-3.60;97.84;101172.25;4863827;29;20280;-76
2021/01/26 07:03:40;;;;;;;52.88;28.10;;;;;;;-3.68;97.75;101176.78;4863802;29;20044;-78
2021/01/26 07:06:14;;;;;;;62.63;29.60;;;;;;;-3.71;97.58;101182.84;4883070;29;20037;-76
2021/01/26 07:09:06;;;;;;;60.30;31.15;;;;;;;-3.77;97.39;101177.84;4876943;29;20041;-76
2021/01/26 07:12:00;;;;;;;56.17;31.02;;;;;;;-3.86;97.35;101178.13;4867881;29;20052;-76
2021/01/26 07:14:47;;;;;;;69.88;34.17;;;;;;;-3.89;98.31;101197.00;4852927;29;20242;-77
2021/01/26 07:17:42;;;;;;;63.33;32.70;;;;;;;-3.93;97.95;101196.25;4893843;29;20049;-77
2021/01/26 07:20:35;;;;;;;68.47;34.50;;;;;;;-3.91;98.13;101211.59;4875798;29;20049;-76
2021/01/26 07:23:10;;;;;;;69.00;34.65;;;;;;;-3.95;98.04;101215.13;4882013;29;20049;-79
2021/01/26 07:26:18;;;;;;;72.95;34.42;;;;;;;-3.97;97.87;101222.00;4870972;29;20043;-78
2021/01/26 07:29:13;;;;;;;69.80;34.33;;;;;;;-4.00;98.40;101224.66;4893260;29;20835;-76
2021/01/26 07:31:52;;;;;;;63.63;30.92;;;;;;;-3.99;97.72;101231.47;4885535;29;20580;-77
2021/01/26 07:34:27;;;;;;;63.55;32.92;;;;;;;-3.99;98.26;101234.88;4864575;29;20468;-75
2021/01/26 07:37:00;;;;;;;66.07;32.63;;;;;;;-4.01;97.86;101231.50;4880122;29;20069;-76
2021/01/26 07:39:43;;;;;;;72.28;34.45;;;;;;;-4.04;98.18;101234.13;4867167;29;20029;-76
2021/01/26 07:42:16;;;;;;;61.25;31.45;;;;;;;-3.99;97.88;101246.84;4878749;29;20056;-80
2021/01/26 07:45:17;;;;;;;60.28;30.30;;;;;;;-3.99;97.60;101247.69;4873963;29;20049;-75
2021/01/26 07:47:52;;;;;;;60.80;29.75;;;;;;;-3.99;97.60;101247.69;4837315;29;20049;-77
2021/01/26 07:50:32;;;;;;;60.38;30.23;;;;;;;-3.96;97.33;101254.44;4878998;29;20053;-76
2021/01/26 07:53:13;;;;;;;59.33;30.00;;;;;;;-3.92;96.96;101251.75;4860298;29;20041;-77
2021/01/26 07:55:47;;;;;;;56.42;29.33;;;;;;;-3.89;97.13;101247.44;4868767;29;20042;-77
2021/01/26 07:58:15;;;;;;;67.85;31.65;;;;;;;-3.84;97.75;101246.44;4876416;29;20069;-78
2021/01/26 08:00:45;;;;;;;61.67;31.13;;;;;;;-3.72;97.48;101252.94;4860285;29;20041;-75
2021/01/26 08:03:11;;;;;;;79.72;38.60;;;;;;;-3.60;98.00;101257.72;4854615;29;20044;-76
2021/01/26 08:05:41;;;;;;;72.57;35.63;;;;;;;-3.49;97.92;101262.53;4888201;29;20033;-78
2021/01/26 08:08:15;;;;;;;72.18;33.88;;;;;;;-3.36;97.80;101268.97;4870939;29;20033;-77
2021/01/26 08:10:41;;;;;;;73.40;36.70;;;;;;;-3.24;97.80;101269.50;4878379;29;20514;-77
2021/01/26 08:13:07;;;;;;;77.43;35.97;;;;;;;-3.15;97.69;101287.22;4881633;29;20037;-77
2021/01/26 08:15:38;;;;;;;77.95;40.75;;;;;;;-3.04;97.81;101276.63;4881164;29;20068;-76
2021/01/26 08:18:20;;;;;;;71.72;37.38;;;;;;;-2.95;97.66;101281.50;4874800;29;20453;-77
2021/01/26 08:20:46;;;;;;;75.97;38.35;;;;;;;-2.83;97.58;101270.81;4878345;29;20551;-76
2021/01/26 08:23:22;;;;;;;86.95;42.80;;;;;;;-2.60;97.66;101282.97;4841697;29;20044;-77
2021/01/26 08:25:53;;;;;;;83.90;39.85;;;;;;;-2.52;97.41;101281.84;4861963;29;20539;-77
2021/01/26 08:28:40;;;;;;;78.45;38.15;;;;;;;-2.47;97.54;101291.09;4854069;29;20040;-78
2021/01/26 08:31:38;;;;;;;83.13;38.90;;;;;;;-2.47;97.76;101303.94;4852009;29;20056;-77
2021/01/26 08:34:23;;;;;;;67.60;34.45;;;;;;;-2.42;97.57;101296.94;4861235;29;20052;-77
2021/01/26 08:37:07;;;;;;;68.07;34.50;;;;;;;-2.34;97.85;101312.09;4862666;29;20103;-78
2021/01/26 08:39:44;;;;;;;67.85;33.67;;;;;;;-2.29;97.79;101315.34;4867855;29;20319;-78
2021/01/26 08:42:11;;;;;;;84.00;42.67;;;;;;;-2.26;97.72;101310.13;4860714;29;20097;-78
2021/01/26 08:44:37;;;;;;;64.00;33.40;;;;;;;-2.17;97.96;101314.97;4873231;29;20124;-76
2021/01/26 08:47:41;;;;;;;91.82;45.13;;;;;;;-2.12;98.20;101313.97;4856816;29;20045;-79
2021/01/26 08:50:30;;;;;;;75.63;36.55;;;;;;;-2.08;97.99;101315.53;4873353;29;20476;-77
2021/01/26 08:53:21;;;;;;;81.13;40.80;;;;;;;-1.88;97.53;101313.13;4868572;29;20049;-76
2021/01/26 08:56:22;;;;;;;88.72;43.50;;;;;;;-1.90;97.48;101309.78;4857054;29;20044;-78
2021/01/26 08:58:58;;;;;;;90.20;44.28;;;;;;;-1.78;97.95;101326.53;4883250;29;20074;-79
2021/01/26 09:01:23;;;;;;;82.22;43.50;;;;;;;-1.49;98.00;101337.50;4846681;29;20045;-77
2021/01/26 09:03:56;;;;;;;82.40;43.90;;;;;;;-1.42;97.91;101344.97;4861015;29;20045;-77
2021/01/26 09:06:43;;;;;;;;;;;;;;;-1.45;98.36;101339.06;4877230;29;20570;-77
2021/01/26 09:09:18;;;;;;;96.40;45.00;;;;;;;-1.50;98.44;101338.41;4856915;29;19920;-80
2021/01/26 09:11:43;;;;;;;96.88;47.63;;;;;;;-1.50;98.73;101346.16;4860274;29;20116;-79
2021/01/26 09:14:26;;;;;;;97.15;46.15;;;;;;;-1.50;99.10;101344.41;4855384;29;20033;-79
2021/01/26 09:16:58;;;;;;;94.50;49.97;;;;;;;-1.42;99.07;101344.97;4862128;29;20097;-78
2021/01/26 09:19:30;;;;;;;92.70;46.93;;;;;;;-1.28;99.42;101353.91;4865635;29;20080;-79
2021/01/26 09:21:55;;;;;;;98.05;46.53;;;;;;;-1.13;99.38;101350.81;4848853;29;20123;-77
2021/01/26 09:24:23;;;;;;;112.55;54.13;;;;;;;-1.03;99.08;101354.72;4878518;29;20487;-77
2021/01/26 09:26:50;;;;;;;91.75;45.78;;;;;;;-0.93;99.22;101351.78;4857325;29;20044;-76
2021/01/26 09:29:26;;;;;;;97.28;49.53;;;;;;;-0.95;98.89;101356.16;4870565;29;20511;-76
2021/01/26 09:31:53;;;;;;;97.15;48.72;;;;;;;-0.94;99.23;101361.25;4836475;29;20105;-76
2021/01/26 09:34:28;;;;;;;85.90;47.10;;;;;;;-0.73;98.14;101366.50;4842916;29;20040;-78
2021/01/26 09:37:21;;;;;;;88.82;45.97;;;;;;;-0.70;98.18;101377.50;4843589;29;20481;-76
2021/01/26 09:39:46;;;;;;;79.30;42.22;;;;;;;-0.56;97.60;101384.72;4869042;29;20045;-78
2021/01/26 09:42:20;;;;;;;82.57;44.60;;;;;;;-0.47;97.37;101374.06;4874287;29;20135;-78
2021/01/26 09:44:57;;;;;;;85.20;46.28;;;;;;;-0.50;97.29;101383.66;4840117;29;20037;-75
2021/01/26 09:47:22;;;;;;;91.07;47.13;;;;;;;-0.52;97.41;101391.44;4876122;29;20073;-75
2021/01/26 09:49:49;;;;;;;80.07;44.30;;;;;;;-0.45;97.36;101387.72;4871477;29;20135;-76
2021/01/26 09:52:18;;;;;;;83.00;45.55;;;;;;;-0.46;97.52;101391.19;4894707;29;20043;-77
2021/01/26 09:54:44;;;;;;;102.00;51.60;;;;;;;-0.48;97.51;101389.56;4868935;29;20148;-78
2021/01/26 09:57:15;;;;;;;88.40;48.20;;;;;;;-0.47;98.24;101388.66;4840425;29;20041;-77
2021/01/26 09:59:43;;;;;;;88.15;47.97;;;;;;;-0.44;98.01;101386.81;4849529;29;20093;-77
2021/01/26 10:02:13;;;;;;;91.47;47.88;;;;;;;-0.40;97.61;101374.66;4874415;29;20041;-78
2021/01/26 10:04:40;;;;;;;71.75;40.33;;;;;;;-0.36;97.78;101383.09;4844699;29;20048;-80
2021/01/26 10:07:08;;;;;;;81.35;44.28;;;;;;;-0.29;98.03;101380.22;4841700;29;20049;-75
2021/01/26 10:09:35;;;;;;;82.20;43.58;;;;;;;-0.20;97.36;101382.44;4845161;29;20056;-77
2021/01/26 10:12:22;;;;;;;77.15;42.63;;;;;;;-0.11;97.40;101381.22;4880352;29;20041;-78
2021/01/26 10:15:10;;;;;;;74.47;42.65;;;;;;;0.24;95.94;101385.84;4843813;29;20041;-78
2021/01/26 10:17:43;;;;;;;77.15;42.50;;;;;;;0.35;94.75;101401.69;4872680;29;20037;-77
2021/01/26 10:20:09;;;;;;;;;;;;;;;0.39;94.12;101393.75;4856461;29;20045;-77
2021/01/26 10:22:34;;;;;;;;;;;;;;;0.43;94.07;101394.47;4862999;29;19948;-76
2021/01/26 10:25:08;;;;;;;;;;;;;;;0.48;93.34;101395.13;4867780;29;20486;-77
2021/01/26 10:27:37;;;;;;;;;;;;;;;0.55;93.20;101396.53;4870839;29;19916;-79
2021/01/26 10:30:08;;;;;;;;;;;;;;;0.51;94.18;101399.28;4860487;29;19920;-77
2021/01/26 10:32:45;;;;;;;;;;;;;;;0.63;93.70;101408.28;4860786;29;19919;-78
2021/01/26 10:35:25;;;;;;;;;;;;;;;0.60;92.16;101401.47;4862376;29;20369;-77
2021/01/26 10:37:51;;;;;;;;;;;;;;;0.61;92.30;101408.34;4845279;29;19919;-77
2021/01/26 10:40:30;;;;;;;;;;;;;;;0.52;93.76;101412.16;4873815;29;20434;-76
2021/01/26 10:43:01;;;;;;;;;;;;;;;0.63;93.92;101414.28;4865299;29;19923;-78
2021/01/26 10:45:36;;;;;;;;;;;;;;;0.74;92.59;101408.66;4863950;29;19976;-77
2021/01/26 10:48:25;;;;;;;;;;;;;;;0.64;92.95;101409.94;4881198;29;20455;-78
2021/01/26 10:50:51;;;;;;;;;;;;;;;0.55;93.39;101408.63;4874979;29;20267;-80
2021/01/26 10:53:33;;;;;;;;;;;;;;;0.45;94.13;101413.31;4888041;29;20002;-77
2021/01/26 10:55:58;;;;;;;;;;;;;;;0.49;94.52;101412.28;4880116;29;19926;-77
2021/01/26 10:58:23;;;;;;;;;;;;;;;0.35;95.68;101415.44;4883837;29;19915;-76
2021/01/26 11:00:50;;;;;;;;;;;;;;;0.42;96.11;101410.88;4877056;29;19927;-77
2021/01/26 11:03:16;;;;;;;;;;;;;;;0.50;95.50;101407.97;4879206;29;19920;-76
2021/01/26 11:05:41;;;;;;;;;;;;;;;0.63;95.15;101410.88;4878206;29;19920;-76
2021/01/26 11:08:06;;;;;;;;;;;;;;;0.67;95.43;101415.81;4867632;29;20029;-76
2021/01/26 11:10:34;;;;;;;;;;;;;;;0.88;94.25;101411.44;4866430;29;19926;-77
2021/01/26 11:12:59;;;;;;;;;;;;;;;1.19;92.06;101417.00;4856352;29;19944;-79
2021/01/26 11:15:27;;;;;;;;;;;;;;;1.38;90.99;101422.19;4881674;29;19920;-76
2021/01/26 11:17:52;;;;;;;;;;;;;;;1.47;91.10;101427.75;4861215;29;20011;-77
2021/01/26 11:20:19;;;;;;;;;;;;;;;1.47;90.29;101425.19;4883830;29;19923;-76
2021/01/26 11:22:45;;;;;;;;;;;;;;;1.58;89.45;101429.84;4883238;29;19926;-76
2021/01/26 11:25:10;;;;;;;;;;;;;;;1.62;90.33;101427.94;4883683;29;19930;-77
2021/01/26 11:27:36;;;;;;;;;;;;;;;1.66;89.94;101429.50;4882029;29;20036;-77
2021/01/26 11:30:05;;;;;;;;;;;;;;;1.61;91.31;101428.88;4851777;29;19920;-76
2021/01/26 11:32:31;;;;;;;;;;;;;;;1.58;91.53;101426.41;4877053;29;19927;-77
2021/01/26 11:34:56;;;;;;;;;;;;;;;1.55;92.31;101433.41;4871272;29;19919;-76
2021/01/26 11:37:22;;;;;;;;;;;;;;;1.60;92.48;101428.03;4850668;29;19919;-77
2021/01/26 11:39:47;;;;;;;;;;;;;;;1.69;92.42;101434.50;4864155;29;19926;-74
2021/01/26 11:42:13;;;;;;;;;;;;;;;2.05;90.86;101433.66;4879246;29;19926;-76
2021/01/26 11:44:38;;;;;;;;;;;;;;;2.24;88.99;101431.88;4883304;29;20197;-76
2021/01/26 11:47:04;;;;;;;;;;;;;;;2.33;90.52;101438.31;4881758;29;19920;-76
2021/01/26 11:49:29;;;;;;;;;;;;;;;2.78;86.77;101436.91;4897874;29;19927;-74
2021/01/26 11:51:55;;;;;;;;;;;;;;;3.05;86.89;101439.84;4883381;29;20390;-76
2021/01/26 11:54:20;;;;;;;;;;;;;;;3.33;87.86;101443.53;4865685;29;20295;-78